Terminal Aerodrome Forecast
Issued by NWS Green Bay, WI

Home | Current Version | Previous Version | Graphics & Text | Print | Product List | Glossary On
Versions: 1 2 3 4 5 6 7 8 9 10 11 12 13 14 15 16 17 18 19 20 21 22 23 24
000
FTUS43 KGRB 222300
TAFGRB
TAF
KGRB 222320Z 2300/2324 31009G17KT P6SM BKN040 BKN060
      TEMPO 2300/2304 6SM -SN
     FM231600 30011KT P6SM SCT050=

USA.gov is the U.S. government's official web portal to all federal, state and local government web resources and services.